createdAt,value
2018-08-04T00:02:21.778Z,15.43
2018-08-04T00:04:50.828Z,14.70
2018-08-04T00:07:19.974Z,14.90
2018-08-04T00:09:49.005Z,15.98
2018-08-04T00:12:18.122Z,16.07
2018-08-04T00:14:47.237Z,15.20
2018-08-04T00:17:16.357Z,14.45
2018-08-04T00:19:45.450Z,15.75
2018-08-04T00:22:14.465Z,15.75
2018-08-04T00:24:43.520Z,16.30
2018-08-04T00:27:12.517Z,16.65
2018-08-04T00:29:41.502Z,16.87
2018-08-04T00:32:10.520Z,16.60
2018-08-04T00:34:39.557Z,16.77
2018-08-04T00:37:08.696Z,16.70
2018-08-04T00:39:37.690Z,17.30
2018-08-04T00:42:06.874Z,16.30
2018-08-04T00:44:35.937Z,16.05
2018-08-04T00:47:05.073Z,16.30
2018-08-04T00:49:34.232Z,14.90
2018-08-04T00:52:03.305Z,15.25
2018-08-04T00:54:32.325Z,16.52
2018-08-04T00:57:01.429Z,16.67
2018-08-04T00:59:30.499Z,16.80
2018-08-04T01:01:59.529Z,16.90
2018-08-04T01:04:28.575Z,17.42
2018-08-04T01:06:57.730Z,17.32
2018-08-04T01:09:26.782Z,17.02
2018-08-04T01:11:55.781Z,16.65
2018-08-04T01:14:24.793Z,17.15
2018-08-04T01:16:53.908Z,16.73
2018-08-04T01:19:22.941Z,16.52
2018-08-04T01:21:52.217Z,17.62
2018-08-04T01:24:21.239Z,17.40
2018-08-04T01:26:50.269Z,17.75
2018-08-04T01:29:19.269Z,18.05
2018-08-04T01:31:48.319Z,17.75
2018-08-04T01:34:17.429Z,17.80
2018-08-04T01:36:46.661Z,17.65
2018-08-04T01:39:15.722Z,17.80
2018-08-04T01:41:44.890Z,17.30
2018-08-04T01:44:14.045Z,17.10
2018-08-04T01:46:43.049Z,17.82
2018-08-04T01:49:12.095Z,17.70
2018-08-04T01:51:41.118Z,17.50
2018-08-04T01:54:10.154Z,17.92
2018-08-04T01:56:39.294Z,18.80
2018-08-04T01:59:08.399Z,19.60
2018-08-04T02:01:37.396Z,17.98
2018-08-04T02:04:06.455Z,19.07
2018-08-04T02:06:35.485Z,18.42
2018-08-04T02:09:06.401Z,18.05
2018-08-04T02:11:35.566Z,18.20
2018-08-04T02:14:04.640Z,18.42
2018-08-04T02:16:33.960Z,18.20
2018-08-04T02:19:02.969Z,18.07
2018-08-04T02:21:32.115Z,18.35
2018-08-04T02:24:01.165Z,18.50
2018-08-04T02:26:30.158Z,18.50
2018-08-04T02:28:59.281Z,16.52
2018-08-04T02:31:28.273Z,17.42
2018-08-04T02:33:57.298Z,19.30
2018-08-04T02:36:27.398Z,20.70
2018-08-04T02:38:56.446Z,20.40
2018-08-04T02:41:25.558Z,20.62
2018-08-04T02:43:54.643Z,19.92
2018-08-04T02:46:23.786Z,20.97
2018-08-04T02:48:53.024Z,21.23
2018-08-04T02:51:22.077Z,22.50
2018-08-04T02:53:51.125Z,22.22
2018-08-04T02:56:20.168Z,22.32
2018-08-04T02:58:49.181Z,20.30
2018-08-04T03:01:18.253Z,21.03
2018-08-04T03:03:47.305Z,20.37
2018-08-04T03:06:16.438Z,21.23
2018-08-04T03:08:45.449Z,21.85
2018-08-04T03:11:14.473Z,21.48
2018-08-04T03:13:43.597Z,21.68
2018-08-04T03:16:12.664Z,20.57
2018-08-04T03:18:41.708Z,19.00
2018-08-04T03:21:10.746Z,19.83
2018-08-04T03:23:39.802Z,19.77
2018-08-04T03:26:08.833Z,18.67
2018-08-04T03:28:37.972Z,19.70
2018-08-04T03:31:07.059Z,22.00
2018-08-04T03:33:36.438Z,20.77
2018-08-04T03:36:05.473Z,20.30
2018-08-04T03:38:34.467Z,19.40
2018-08-04T03:41:03.495Z,20.00
2018-08-04T03:43:32.608Z,18.23
2018-08-04T03:46:01.612Z,19.13
2018-08-04T03:48:30.618Z,20.40
2018-08-04T03:50:59.660Z,20.70
2018-08-04T03:53:28.778Z,22.87
2018-08-04T03:55:58.020Z,21.90
2018-08-04T03:58:27.064Z,22.20
2018-08-04T04:00:56.114Z,20.73
2018-08-04T04:03:25.133Z,19.60
2018-08-04T04:05:54.140Z,20.67
2018-08-04T04:08:23.481Z,20.43
2018-08-04T04:10:52.472Z,22.67
2018-08-04T04:13:21.644Z,21.30
2018-08-04T04:15:50.677Z,21.23
2018-08-04T04:18:19.769Z,20.93
2018-08-04T04:20:48.823Z,21.20
2018-08-04T04:23:17.853Z,21.90
2018-08-04T04:25:46.908Z,20.63
2018-08-04T04:28:15.988Z,21.23
2018-08-04T04:30:45.201Z,22.00
2018-08-04T04:33:14.298Z,22.43
2018-08-04T04:35:43.433Z,21.13
2018-08-04T04:38:12.484Z,20.70
2018-08-04T04:40:41.609Z,21.45
2018-08-04T04:43:10.598Z,21.50
2018-08-04T04:45:39.690Z,21.00
2018-08-04T04:48:08.693Z,19.35
2018-08-04T04:50:37.682Z,19.90
2018-08-04T04:53:06.897Z,19.35
2018-08-04T04:55:35.893Z,19.82
2018-08-04T04:58:05.278Z,19.20
2018-08-04T05:00:34.307Z,19.27
2018-08-04T05:03:03.345Z,18.98
2018-08-04T05:05:32.341Z,19.00
2018-08-04T05:08:01.334Z,18.35
2018-08-04T05:10:30.457Z,18.25
2018-08-04T05:12:59.502Z,18.87
2018-08-04T05:15:28.644Z,18.62
2018-08-04T05:17:57.695Z,18.42
2018-08-04T05:20:26.733Z,17.80
2018-08-04T05:22:55.783Z,18.23
2018-08-04T05:25:24.824Z,17.92
2018-08-04T05:27:53.870Z,18.27
2018-08-04T05:30:23.169Z,18.98
2018-08-04T05:32:52.213Z,18.60
2018-08-04T05:35:21.220Z,17.77
2018-08-04T05:37:50.386Z,17.45
2018-08-04T05:40:19.557Z,17.73
2018-08-04T05:42:48.589Z,17.95
2018-08-04T05:45:17.651Z,17.80
2018-08-04T05:47:47.155Z,16.73
2018-08-04T05:50:16.237Z,16.52
2018-08-04T05:52:45.319Z,16.75
2018-08-04T05:55:14.381Z,16.10
2018-08-04T05:57:43.394Z,15.88
2018-08-04T06:00:12.488Z,15.65
2018-08-04T06:02:41.757Z,15.75
2018-08-04T06:05:10.876Z,14.78
2018-08-04T06:07:40.035Z,15.43
2018-08-04T06:10:09.112Z,13.83
2018-08-04T06:12:38.196Z,14.15
2018-08-04T06:15:07.267Z,13.80
2018-08-04T06:17:36.283Z,12.65
2018-08-04T06:20:05.883Z,12.28
2018-08-04T06:22:34.994Z,11.35
2018-08-04T06:25:04.021Z,11.03
2018-08-04T06:27:33.108Z,11.80
2018-08-04T06:30:02.183Z,10.95
2018-08-04T06:32:31.746Z,11.30
2018-08-04T06:35:00.753Z,10.45
2018-08-04T06:37:29.863Z,10.38
2018-08-04T06:39:58.876Z,10.55
2018-08-04T06:42:27.937Z,9.95
2018-08-04T06:44:57.072Z,10.18
2018-08-04T06:47:26.151Z,10.38
2018-08-04T06:49:55.310Z,9.65
2018-08-04T06:52:24.306Z,9.55
2018-08-04T06:54:53.616Z,9.50
2018-08-04T06:57:22.769Z,9.50
2018-08-04T06:59:51.796Z,8.60
2018-08-04T07:02:20.823Z,8.28
2018-08-04T07:04:49.897Z,7.95
2018-08-04T07:07:19.031Z,7.78
2018-08-04T07:09:48.098Z,7.33
2018-08-04T07:12:17.133Z,7.72
2018-08-04T07:14:46.130Z,7.47
2018-08-04T07:17:15.165Z,7.50
2018-08-04T07:19:44.253Z,7.60
2018-08-04T07:22:13.241Z,7.30
2018-08-04T07:24:42.269Z,7.37
2018-08-04T07:27:11.431Z,7.00
2018-08-04T07:29:40.580Z,7.03
2018-08-04T07:32:09.619Z,6.22
2018-08-04T07:34:38.681Z,6.90
2018-08-04T07:37:07.862Z,6.60
2018-08-04T07:39:36.915Z,6.40
2018-08-04T07:42:06.323Z,6.45
2018-08-04T07:44:35.439Z,6.55
2018-08-04T07:47:04.475Z,6.80
2018-08-04T07:49:33.573Z,6.80
2018-08-04T07:52:02.602Z,6.95
2018-08-04T07:54:31.741Z,6.65
2018-08-04T07:57:00.940Z,6.40
2018-08-04T07:59:30.052Z,6.62
2018-08-04T08:01:59.133Z,6.67
2018-08-04T08:04:28.198Z,6.62
2018-08-04T08:06:57.304Z,6.50
2018-08-04T08:09:26.361Z,6.58
2018-08-04T08:11:55.656Z,6.80
2018-08-04T08:14:24.656Z,6.47
2018-08-04T08:16:53.646Z,6.33
2018-08-04T08:19:22.743Z,6.40
2018-08-04T08:21:51.857Z,7.28
2018-08-04T08:24:20.981Z,6.00
2018-08-04T08:26:50.055Z,6.58
2018-08-04T08:29:19.175Z,6.03
2018-08-04T08:31:48.198Z,6.12
2018-08-04T08:34:17.341Z,6.65
2018-08-04T08:36:46.405Z,6.33
2018-08-04T08:39:15.493Z,6.40
2018-08-04T08:41:44.625Z,6.17
2018-08-04T08:44:13.919Z,6.97
2018-08-04T08:46:42.948Z,6.83
2018-08-04T08:49:11.984Z,6.47
2018-08-04T08:51:41.012Z,6.58
2018-08-04T08:54:10.187Z,7.10
2018-08-04T08:56:39.197Z,6.80
2018-08-04T08:59:08.249Z,6.53
2018-08-04T09:01:37.252Z,6.70
2018-08-04T09:04:06.690Z,6.62
2018-08-04T09:06:35.754Z,6.50
2018-08-04T09:09:06.622Z,6.83
2018-08-04T09:11:35.626Z,7.25
2018-08-04T09:14:04.743Z,6.78
2018-08-04T09:16:33.773Z,6.75
2018-08-04T09:19:02.861Z,7.28
2018-08-04T09:21:31.987Z,6.62
2018-08-04T09:24:00.984Z,6.30
2018-08-04T09:26:30.077Z,6.10
2018-08-04T09:28:59.068Z,6.50
2018-08-04T09:31:28.153Z,6.30
2018-08-04T09:33:57.274Z,6.05
2018-08-04T09:36:26.375Z,6.10
2018-08-04T09:38:55.456Z,5.67
2018-08-04T09:41:24.436Z,6.00
2018-08-04T09:43:53.572Z,5.70
2018-08-04T09:46:23.260Z,5.97
2018-08-04T09:48:52.454Z,4.90
2018-08-04T09:51:21.465Z,4.53
2018-08-04T09:53:50.569Z,4.20
2018-08-04T09:56:19.643Z,4.40
2018-08-04T09:58:48.705Z,4.28
2018-08-04T10:01:22.994Z,4.22
2018-08-04T10:03:52.346Z,4.47
2018-08-04T10:06:21.537Z,4.25
2018-08-04T10:08:50.646Z,3.85
2018-08-04T10:11:19.841Z,4.00
2018-08-04T10:13:48.870Z,4.22
2018-08-04T10:16:18.012Z,4.33
2018-08-04T10:18:47.088Z,4.50
2018-08-04T10:21:16.118Z,4.30
2018-08-04T10:23:45.161Z,4.05
2018-08-04T10:26:14.209Z,4.20
2018-08-04T10:28:43.265Z,4.70
2018-08-04T10:31:12.394Z,4.80
2018-08-04T10:33:41.440Z,4.37
2018-08-04T10:36:10.459Z,4.62
2018-08-04T10:38:39.531Z,4.03
2018-08-04T10:41:08.541Z,4.20
2018-08-04T10:43:37.650Z,3.92
2018-08-04T10:46:06.647Z,4.10
2018-08-04T10:48:35.841Z,4.20
2018-08-04T10:51:04.839Z,4.60
2018-08-04T10:53:34.214Z,4.42
2018-08-04T10:56:03.746Z,4.97
2018-08-04T10:58:32.762Z,4.80
2018-08-04T11:01:01.930Z,5.25
2018-08-04T11:03:31.281Z,5.62
2018-08-04T11:06:00.333Z,5.50
2018-08-04T11:08:29.413Z,5.00
2018-08-04T11:10:58.462Z,4.97
2018-08-04T11:13:27.574Z,4.90
2018-08-04T11:15:56.593Z,5.12
2018-08-04T11:18:25.708Z,5.25
2018-08-04T11:20:54.749Z,5.37
2018-08-04T11:23:23.961Z,5.67
2018-08-04T11:25:53.149Z,5.70
2018-08-04T11:28:22.317Z,6.00
2018-08-04T11:30:51.394Z,5.42
2018-08-04T11:33:21.314Z,5.62
2018-08-04T11:35:50.861Z,5.50
2018-08-04T11:38:19.870Z,5.30
2018-08-04T11:40:49.002Z,5.47
2018-08-04T11:43:18.038Z,5.62
2018-08-04T11:45:47.090Z,5.47
2018-08-04T11:48:16.161Z,5.40
2018-08-04T11:50:45.204Z,5.55
2018-08-04T11:53:14.326Z,5.00
2018-08-04T11:55:43.533Z,5.33
2018-08-04T11:58:12.595Z,5.20
2018-08-04T12:00:41.712Z,5.12
2018-08-04T12:03:10.836Z,4.92
2018-08-04T12:05:39.890Z,5.33
2018-08-04T12:08:09.052Z,4.65
2018-08-04T12:10:38.064Z,4.65
2018-08-04T12:13:07.125Z,4.90
2018-08-04T12:15:36.183Z,4.95
2018-08-04T12:18:05.267Z,4.65
2018-08-04T12:20:34.365Z,4.92
2018-08-04T12:23:03.361Z,4.75
2018-08-04T12:25:32.553Z,5.20
2018-08-04T12:28:01.547Z,4.65
2018-08-04T12:30:30.557Z,4.50
2018-08-04T12:32:59.614Z,4.70
2018-08-04T12:35:28.666Z,4.50
2018-08-04T12:37:57.725Z,4.60
2018-08-04T12:40:26.846Z,4.62
2018-08-04T12:42:55.897Z,4.80
2018-08-04T12:45:25.084Z,4.58
2018-08-04T12:47:54.374Z,4.75
2018-08-04T12:50:23.411Z,4.70
2018-08-04T12:52:52.532Z,4.60
2018-08-04T12:55:21.525Z,4.90
2018-08-04T12:57:50.698Z,4.95
2018-08-04T13:00:19.770Z,4.70
2018-08-04T13:02:48.901Z,4.85
2018-08-04T13:05:17.956Z,4.95
2018-08-04T13:07:46.930Z,4.87
2018-08-04T13:10:16.001Z,5.12
2018-08-04T13:12:44.986Z,4.95
2018-08-04T13:15:14.286Z,5.20
2018-08-04T13:17:43.374Z,4.90
2018-08-04T13:20:14.762Z,5.17
2018-08-04T13:22:44.380Z,5.08
2018-08-04T13:25:13.513Z,4.92
2018-08-04T13:27:42.484Z,4.40
2018-08-04T13:30:11.542Z,4.25
2018-08-04T13:32:40.694Z,4.85
2018-08-04T13:35:09.761Z,5.55
2018-08-04T13:37:38.950Z,4.80
2018-08-04T13:40:07.970Z,4.87
2018-08-04T13:42:37.089Z,4.87
2018-08-04T13:45:06.805Z,4.90
2018-08-04T13:47:35.857Z,4.80
2018-08-04T13:50:05.742Z,4.97
2018-08-04T13:52:35.072Z,5.05
2018-08-04T13:55:04.253Z,5.03
2018-08-04T13:57:33.274Z,5.33
2018-08-04T14:00:02.401Z,5.22
2018-08-04T14:02:31.397Z,5.22
2018-08-04T14:05:00.409Z,5.08
2018-08-04T14:07:29.504Z,4.87
2018-08-04T14:09:58.703Z,5.10
2018-08-04T14:12:27.796Z,5.10
2018-08-04T14:14:56.857Z,5.08
2018-08-04T14:17:26.026Z,4.92
2018-08-04T14:19:55.140Z,5.12
2018-08-04T14:22:24.177Z,5.08
2018-08-04T14:24:53.939Z,4.85
2018-08-04T14:27:23.102Z,4.80
2018-08-04T14:29:52.259Z,4.97
2018-08-04T14:32:23.404Z,5.22
2018-08-04T14:34:52.615Z,5.03
2018-08-04T14:37:21.646Z,5.25
2018-08-04T14:39:50.696Z,5.25
2018-08-04T14:42:19.869Z,5.72
2018-08-04T14:44:48.991Z,5.12
2018-08-04T14:47:18.026Z,5.28
2018-08-04T14:49:47.015Z,5.12
2018-08-04T14:52:16.153Z,4.90
2018-08-04T14:54:45.727Z,5.42
2018-08-04T14:57:14.957Z,5.15
2018-08-04T14:59:43.957Z,5.10
2018-08-04T15:02:13.221Z,4.80
2018-08-04T15:04:42.345Z,4.72
2018-08-04T15:07:11.402Z,5.17
2018-08-04T15:09:40.524Z,5.10
2018-08-04T15:12:09.538Z,5.15
2018-08-04T15:14:38.561Z,4.97
2018-08-04T15:17:07.701Z,4.92
2018-08-04T15:19:36.793Z,5.15
2018-08-04T15:22:07.463Z,4.58
2018-08-04T15:24:36.594Z,5.05
2018-08-04T15:27:05.673Z,4.97
2018-08-04T15:29:34.715Z,5.00
2018-08-04T15:32:03.816Z,5.00
2018-08-04T15:34:32.873Z,5.22
2018-08-04T15:37:01.909Z,4.58
2018-08-04T15:39:30.989Z,4.95
2018-08-04T15:42:00.093Z,4.97
2018-08-04T15:44:29.253Z,4.78
2018-08-04T15:46:59.266Z,5.00
2018-08-04T15:49:28.541Z,4.80
2018-08-04T15:51:57.566Z,4.65
2018-08-04T15:54:26.696Z,4.40
2018-08-04T15:56:55.752Z,4.90
2018-08-04T15:59:24.774Z,4.47
2018-08-04T16:01:53.789Z,4.03
2018-08-04T16:04:22.899Z,4.35
2018-08-04T16:06:51.889Z,4.50
2018-08-04T16:09:20.946Z,4.20
2018-08-04T16:11:50.023Z,4.03
2018-08-04T16:14:19.145Z,4.70
2018-08-04T16:16:48.245Z,4.90
2018-08-04T16:19:17.334Z,4.50
2018-08-04T16:21:46.422Z,4.83
2018-08-04T16:24:15.607Z,4.30
2018-08-04T16:26:44.713Z,4.37
2018-08-04T16:29:13.697Z,4.37
2018-08-04T16:31:42.805Z,4.42
2018-08-04T16:34:11.789Z,4.37
2018-08-04T16:36:40.825Z,4.30
2018-08-04T16:39:10.605Z,4.50
2018-08-04T16:41:40.530Z,4.40
2018-08-04T16:44:09.534Z,4.40
2018-08-04T16:46:38.583Z,4.00
2018-08-04T16:49:07.649Z,4.20
2018-08-04T16:51:36.964Z,4.30
2018-08-04T16:54:06.109Z,3.98
2018-08-04T16:56:35.099Z,4.17
2018-08-04T16:59:04.201Z,4.35
2018-08-04T17:01:33.385Z,4.10
2018-08-04T17:04:02.493Z,3.85
2018-08-04T17:06:31.632Z,4.20
2018-08-04T17:09:00.613Z,4.30
2018-08-04T17:11:29.694Z,4.12
2018-08-04T17:13:58.825Z,4.10
2018-08-04T17:16:27.982Z,4.00
2018-08-04T17:18:56.982Z,3.52
2018-08-04T17:21:26.092Z,4.55
2018-08-04T17:23:55.093Z,4.10
2018-08-04T17:26:24.514Z,3.77
2018-08-04T17:28:53.621Z,3.98
2018-08-04T17:31:22.885Z,3.77
2018-08-04T17:33:51.918Z,3.67
2018-08-04T17:36:21.439Z,3.80
2018-08-04T17:38:50.531Z,3.58
2018-08-04T17:41:19.689Z,3.67
2018-08-04T17:43:48.707Z,3.70
2018-08-04T17:46:19.370Z,3.75
2018-08-04T17:48:48.555Z,3.47
2018-08-04T17:51:17.701Z,3.98
2018-08-04T17:53:46.737Z,3.50
2018-08-04T17:56:15.825Z,3.42
2018-08-04T17:58:44.831Z,3.60
2018-08-04T18:01:13.905Z,3.42
2018-08-04T18:03:43.502Z,3.50
2018-08-04T18:06:12.609Z,3.52
2018-08-04T18:08:41.607Z,3.27
2018-08-04T18:11:10.716Z,3.37
2018-08-04T18:13:39.696Z,3.37
2018-08-04T18:16:08.823Z,3.40
2018-08-04T18:18:37.858Z,3.10
2018-08-04T18:21:11.358Z,3.22
2018-08-04T18:23:40.425Z,3.50
2018-08-04T18:26:09.830Z,4.08
2018-08-04T18:28:42.148Z,4.10
2018-08-04T18:31:11.272Z,3.72
2018-08-04T18:33:40.433Z,3.77
2018-08-04T18:36:10.320Z,3.90
2018-08-04T18:38:42.086Z,3.25
2018-08-04T18:41:11.997Z,3.33
2018-08-04T18:43:41.021Z,3.12
2018-08-04T18:46:14.232Z,3.47
2018-08-04T18:48:44.169Z,3.02
2018-08-04T18:51:13.426Z,3.02
2018-08-04T18:53:42.760Z,2.75
2018-08-04T18:56:13.208Z,3.00
2018-08-04T18:58:42.433Z,2.90
2018-08-04T19:01:12.147Z,2.58
2018-08-04T19:03:47.832Z,2.40
2018-08-04T19:06:24.161Z,2.30
2018-08-04T19:09:01.970Z,2.45
2018-08-04T19:11:40.666Z,2.17
2018-08-04T19:14:14.205Z,2.45
2018-08-04T19:16:45.397Z,2.00
2018-08-04T19:19:14.508Z,2.40
2018-08-04T19:21:43.623Z,2.10
2018-08-04T19:24:15.467Z,2.17
2018-08-04T19:26:44.876Z,2.15
2018-08-04T19:29:14.273Z,2.20
2018-08-04T19:31:43.437Z,2.37
2018-08-04T19:34:12.785Z,2.10
2018-08-04T19:36:41.984Z,2.10
2018-08-04T19:39:11.534Z,2.30
2018-08-04T19:41:40.774Z,2.05
2018-08-04T19:44:09.870Z,2.15
2018-08-04T19:46:39.166Z,2.22
2018-08-04T19:49:08.277Z,1.70
2018-08-04T19:51:37.890Z,1.70
2018-08-04T19:54:07.557Z,2.10
2018-08-04T19:56:37.777Z,1.90
2018-08-04T19:59:07.509Z,2.10
2018-08-04T20:01:36.970Z,1.90
2018-08-04T20:04:06.439Z,1.82
2018-08-04T20:06:35.817Z,1.70
2018-08-04T20:09:07.657Z,2.00
2018-08-04T20:11:36.790Z,1.80
2018-08-04T20:14:05.997Z,1.77
2018-08-04T20:16:35.388Z,1.90
2018-08-04T20:19:04.426Z,2.00
2018-08-04T20:21:34.692Z,1.80
2018-08-04T20:24:03.926Z,1.85
2018-08-04T20:26:33.241Z,2.15
2018-08-04T20:29:02.468Z,2.30
2018-08-04T20:31:31.946Z,1.87
2018-08-04T20:34:01.085Z,1.80
2018-08-04T20:36:34.558Z,1.67
2018-08-04T20:39:06.694Z,1.80
2018-08-04T20:41:36.428Z,1.90
2018-08-04T20:44:06.845Z,1.80
2018-08-04T20:46:35.969Z,1.70
2018-08-04T20:49:05.773Z,1.70
2018-08-04T20:51:35.104Z,1.52
2018-08-04T20:54:04.987Z,1.70
2018-08-04T20:56:34.822Z,1.65
2018-08-04T20:59:04.307Z,1.62
2018-08-04T21:01:47.108Z,1.60
2018-08-04T21:04:16.582Z,1.60
2018-08-04T21:06:46.120Z,1.67
2018-08-04T21:09:15.455Z,1.62
2018-08-04T21:11:48.800Z,1.60
2018-08-04T21:14:20.311Z,1.60
2018-08-04T21:16:50.767Z,1.70
2018-08-04T21:19:21.216Z,1.60
2018-08-04T21:21:50.581Z,1.60
2018-08-04T21:24:22.246Z,1.40
2018-08-04T21:29:27.349Z,1.47
2018-08-04T21:31:57.113Z,1.37
2018-08-04T21:34:26.422Z,1.50
2018-08-04T21:36:55.538Z,1.72
2018-08-04T21:39:24.953Z,1.50
2018-08-04T21:41:54.208Z,1.57
2018-08-04T21:44:23.610Z,1.27
2018-08-04T21:46:52.913Z,1.57
2018-08-04T21:49:22.198Z,1.55
2018-08-04T21:51:53.458Z,1.67
2018-08-04T21:54:22.694Z,1.60
2018-08-04T21:56:52.185Z,1.60
2018-08-04T21:59:21.486Z,1.60
2018-08-04T22:01:54.073Z,1.42
2018-08-04T22:04:23.316Z,1.50
2018-08-04T22:08:04.834Z,1.62
2018-08-04T22:10:34.169Z,1.37
2018-08-04T22:13:03.841Z,1.70
2018-08-04T22:15:33.231Z,1.60
2018-08-04T22:18:02.797Z,1.62
2018-08-04T22:20:32.792Z,1.85
2018-08-04T22:23:02.094Z,1.65
2018-08-04T22:25:31.529Z,1.60
2018-08-04T22:28:00.924Z,1.50
2018-08-04T22:30:30.333Z,1.72
2018-08-04T22:32:59.836Z,1.60
2018-08-04T22:35:29.093Z,1.65
2018-08-04T22:37:58.389Z,1.80
2018-08-04T22:40:27.504Z,1.70
2018-08-04T22:42:56.821Z,1.60
2018-08-04T22:46:02.248Z,1.60
2018-08-04T22:48:31.626Z,1.60
2018-08-04T22:51:00.946Z,1.55
2018-08-04T22:53:30.429Z,1.70
2018-08-04T22:55:59.653Z,1.80
2018-08-04T22:58:28.763Z,1.70
2018-08-04T23:00:58.212Z,1.65
2018-08-04T23:03:27.654Z,1.67
2018-08-04T23:05:57.001Z,1.70
2018-08-04T23:08:26.315Z,1.70
2018-08-04T23:10:55.605Z,1.70
2018-08-04T23:13:24.941Z,1.60
2018-08-04T23:15:54.208Z,1.65
2018-08-04T23:18:23.457Z,1.70
2018-08-04T23:20:53.148Z,1.75
2018-08-04T23:23:22.382Z,1.67
2018-08-04T23:25:51.673Z,1.85
2018-08-04T23:28:20.851Z,1.65
2018-08-04T23:30:50.049Z,1.75
2018-08-04T23:33:19.179Z,2.00
2018-08-04T23:35:48.437Z,2.00
2018-08-04T23:38:17.925Z,1.90
2018-08-04T23:40:47.057Z,1.77
2018-08-04T23:43:16.301Z,2.15
2018-08-04T23:45:45.513Z,1.75
2018-08-04T23:48:14.717Z,1.90
2018-08-04T23:50:43.879Z,1.72
2018-08-04T23:53:13.121Z,1.70
2018-08-04T23:55:42.373Z,1.60
2018-08-04T23:58:11.517Z,1.90
